createdAt,value
2023-03-05T00:00:41.047Z,2.8
2023-03-05T00:01:44.432Z,2.9
2023-03-05T00:02:47.582Z,3.1
2023-03-05T00:03:50.897Z,3
2023-03-05T00:04:54.252Z,3.2
2023-03-05T00:05:56.543Z,3.1
2023-03-05T00:06:58.884Z,3.3
2023-03-05T00:08:01.119Z,2.9
2023-03-05T00:09:03.493Z,2.9
2023-03-05T00:10:06.806Z,3.1
2023-03-05T00:11:10.087Z,2.8
2023-03-05T00:12:13.406Z,2.8
2023-03-05T00:13:16.647Z,3.1
2023-03-05T00:14:19.989Z,3.1
2023-03-05T00:15:23.160Z,3
2023-03-05T00:16:26.523Z,2.9
2023-03-05T00:17:29.852Z,3
2023-03-05T00:18:33.029Z,2.6
2023-03-05T00:19:36.370Z,2.8
2023-03-05T00:20:39.669Z,2.7
2023-03-05T00:21:42.931Z,2.8
2023-03-05T00:22:45.237Z,2.5
2023-03-05T00:23:48.485Z,2.8
2023-03-05T00:24:51.866Z,2.7
2023-03-05T00:25:55.157Z,2.7
2023-03-05T00:26:58.423Z,2.5
2023-03-05T00:28:01.728Z,2.9
2023-03-05T00:29:05.013Z,2.7
2023-03-05T00:30:07.278Z,2.5
2023-03-05T00:31:09.654Z,2.5
2023-03-05T00:32:11.953Z,2.5
2023-03-05T00:33:14.192Z,2.3
2023-03-05T00:34:17.660Z,2.8
2023-03-05T00:35:20.875Z,2.4
2023-03-05T00:36:24.175Z,2.4
2023-03-05T00:37:27.495Z,2.2
2023-03-05T00:38:30.750Z,2.2
2023-03-05T00:39:34.027Z,2.3
2023-03-05T00:40:37.321Z,2.09
2023-03-05T00:41:40.667Z,2.09
2023-03-05T00:42:43.825Z,2.2
2023-03-05T00:43:47.242Z,2.4
2023-03-05T00:44:50.548Z,2.6
2023-03-05T00:45:53.793Z,2.2
2023-03-05T00:46:56.106Z,2.5
2023-03-05T00:47:59.426Z,2.3
2023-03-05T00:49:02.671Z,2.3
2023-03-05T00:50:05.955Z,2.09
2023-03-05T00:51:09.243Z,2.3
2023-03-05T00:52:12.622Z,2.09
2023-03-05T00:53:15.897Z,2
2023-03-05T00:54:18.218Z,2.09
2023-03-05T00:55:20.373Z,1.9
2023-03-05T00:56:23.857Z,2
2023-03-05T00:57:26.956Z,1.8
2023-03-05T00:58:29.269Z,2
2023-03-05T00:59:31.623Z,2.09
2023-03-05T01:00:34.882Z,1.9
2023-03-05T01:01:38.208Z,1.7
2023-03-05T01:02:41.499Z,1.5
2023-03-05T01:03:44.805Z,1.9
2023-03-05T01:04:48.192Z,2.3
2023-03-05T01:05:51.325Z,1.9
2023-03-05T01:06:54.662Z,2.3
2023-03-05T01:07:57.890Z,1.8
2023-03-05T01:09:01.392Z,1.9
2023-03-05T01:10:04.493Z,1.9
2023-03-05T01:11:07.874Z,2.09
2023-03-05T01:12:11.184Z,2
2023-03-05T01:13:13.390Z,2
2023-03-05T01:14:16.657Z,2.09
2023-03-05T01:15:19.998Z,2.2
2023-03-05T01:16:23.420Z,2.09
2023-03-05T01:17:26.640Z,1.9
2023-03-05T01:18:29.836Z,1.9
2023-03-05T01:19:33.186Z,2.09
2023-03-05T01:20:35.504Z,1.8
2023-03-05T01:21:37.774Z,1.9
2023-03-05T01:22:40.097Z,1.9
2023-03-05T01:23:42.430Z,1.7
2023-03-05T01:24:45.719Z,1.7
2023-03-05T01:25:49.021Z,1.7
2023-03-05T01:26:52.293Z,1.7
2023-03-05T01:27:55.630Z,1.7
2023-03-05T01:28:58.944Z,1.5
2023-03-05T01:30:02.161Z,1.6
2023-03-05T01:31:05.540Z,1.5
2023-03-05T01:32:08.766Z,1.6
2023-03-05T01:33:12.013Z,1.6
2023-03-05T01:34:15.332Z,1.6
2023-03-05T01:35:18.649Z,1.5
2023-03-05T01:36:21.985Z,1.6
2023-03-05T01:37:24.320Z,1.5
2023-03-05T01:38:27.519Z,1.6
2023-03-05T01:39:30.765Z,1.6
2023-03-05T01:40:34.063Z,1.4
2023-03-05T01:41:37.398Z,1.4
2023-03-05T01:42:40.659Z,1.5
2023-03-05T01:43:44.067Z,1.4
2023-03-05T01:44:46.292Z,1.5
2023-03-05T01:45:48.581Z,1.7
2023-03-05T01:46:50.947Z,1.4
2023-03-05T01:47:53.165Z,1.4
2023-03-05T01:48:56.492Z,1.3
2023-03-05T01:49:59.749Z,1.4
2023-03-05T01:51:03.056Z,1.4
2023-03-05T01:52:06.455Z,1.4
2023-03-05T01:53:09.679Z,1.3
2023-03-05T01:54:12.944Z,1.3
2023-03-05T01:55:16.317Z,1.5
2023-03-05T01:56:19.501Z,1.4
2023-03-05T01:57:22.808Z,1.5
2023-03-05T01:58:26.293Z,1.3
2023-03-05T01:59:29.632Z,1.2
2023-03-05T02:00:32.921Z,1.2
2023-03-05T02:01:35.167Z,1.4
2023-03-05T02:02:38.482Z,1.4
2023-03-05T02:03:41.721Z,1.2
2023-03-05T02:04:45.085Z,1.3
2023-03-05T02:05:48.357Z,1.1
2023-03-05T02:06:51.585Z,1.4
2023-03-05T02:07:54.973Z,1.2
2023-03-05T02:08:57.202Z,1.1
2023-03-05T02:09:59.603Z,1.3
2023-03-05T02:11:01.832Z,1.2
2023-03-05T02:12:04.154Z,1.3
2023-03-05T02:13:07.429Z,1.4
2023-03-05T02:14:10.742Z,1.2
2023-03-05T02:15:14.062Z,1.1
2023-03-05T02:16:17.363Z,1.3
2023-03-05T02:17:20.631Z,1.3
2023-03-05T02:18:23.941Z,1.1
2023-03-05T02:19:27.222Z,1.2
2023-03-05T02:20:30.545Z,1
2023-03-05T02:21:33.766Z,1.1
2023-03-05T02:22:37.092Z,1.2
2023-03-05T02:23:40.472Z,1.2
2023-03-05T02:24:43.724Z,1.1
2023-03-05T02:25:46.051Z,1.1
2023-03-05T02:26:49.292Z,1.1
2023-03-05T02:27:52.538Z,1
2023-03-05T02:28:55.861Z,1
2023-03-05T02:29:59.110Z,1
2023-03-05T02:31:02.535Z,1
2023-03-05T02:32:05.705Z,1
2023-03-05T02:33:08.081Z,1.1
2023-03-05T02:34:10.490Z,1.3
2023-03-05T02:35:12.752Z,1.2
2023-03-05T02:36:14.947Z,1
2023-03-05T02:37:18.262Z,1.1
2023-03-05T02:38:21.549Z,1.1
2023-03-05T02:39:24.827Z,1.1
2023-03-05T02:40:28.112Z,1.1
2023-03-05T02:41:31.412Z,0.9
2023-03-05T02:42:34.691Z,0.8
2023-03-05T02:43:38.002Z,0.9
2023-03-05T02:44:41.270Z,0.9
2023-03-05T02:45:44.562Z,1.2
2023-03-05T02:46:47.867Z,0.9
2023-03-05T02:47:51.164Z,0.9
2023-03-05T02:48:54.526Z,1
2023-03-05T02:49:56.828Z,1
2023-03-05T02:51:00.052Z,1.2
2023-03-05T02:52:03.333Z,1.1
2023-03-05T02:53:06.643Z,0.9
2023-03-05T02:54:09.962Z,0.9
2023-03-05T02:55:13.258Z,1
2023-03-05T02:56:16.581Z,1
2023-03-05T02:57:18.966Z,0.9
2023-03-05T02:58:21.116Z,1.1
2023-03-05T02:59:23.428Z,0.9
2023-03-05T03:00:25.753Z,1
2023-03-05T03:01:29.649Z,0.9
2023-03-05T03:02:32.967Z,1
2023-03-05T03:03:36.232Z,1
2023-03-05T03:04:39.500Z,1
2023-03-05T03:05:42.875Z,1
2023-03-05T03:06:46.158Z,0.9
2023-03-05T03:07:49.375Z,0.9
2023-03-05T03:08:52.667Z,0.9
2023-03-05T03:09:55.977Z,0.8
2023-03-05T03:10:59.270Z,0.9
2023-03-05T03:12:02.659Z,0.8
2023-03-05T03:13:05.837Z,0.8
2023-03-05T03:14:08.240Z,0.9
2023-03-05T03:15:11.461Z,0.8
2023-03-05T03:16:14.839Z,0.8
2023-03-05T03:17:18.064Z,0.9
2023-03-05T03:18:21.354Z,0.8
2023-03-05T03:19:24.663Z,0.7
2023-03-05T03:20:27.925Z,0.8
2023-03-05T03:21:30.242Z,0.7
2023-03-05T03:22:32.583Z,1
2023-03-05T03:23:35.832Z,0.9
2023-03-05T03:24:39.127Z,0.6
2023-03-05T03:25:42.398Z,0.8
2023-03-05T03:26:45.708Z,0.9
2023-03-05T03:27:48.986Z,0.8
2023-03-05T03:28:52.329Z,0.9
2023-03-05T03:29:55.641Z,0.9
2023-03-05T03:30:58.860Z,0.8
2023-03-05T03:32:02.148Z,0.9
2023-03-05T03:33:05.455Z,0.8
2023-03-05T03:34:08.757Z,0.9
2023-03-05T03:35:12.104Z,0.9
2023-03-05T03:36:14.437Z,0.8
2023-03-05T03:37:17.726Z,0.8
2023-03-05T03:38:20.977Z,0.8
2023-03-05T03:39:24.245Z,0.9
2023-03-05T03:40:27.563Z,0.8
2023-03-05T03:41:30.861Z,0.8
2023-03-05T03:42:34.121Z,0.8
2023-03-05T03:43:36.514Z,0.9
2023-03-05T03:44:38.715Z,0.8
2023-03-05T03:45:41.065Z,0.8
2023-03-05T03:46:43.404Z,0.9
2023-03-05T03:47:45.672Z,0.7
2023-03-05T03:48:48.034Z,0.9
2023-03-05T03:49:51.255Z,0.7
2023-03-05T03:50:54.547Z,0.8
2023-03-05T03:51:57.828Z,0.7
2023-03-05T03:53:01.125Z,0.9
2023-03-05T03:54:04.427Z,0.7
2023-03-05T03:55:07.711Z,0.8
2023-03-05T03:56:11.097Z,0.8
2023-03-05T03:57:14.361Z,0.8
2023-03-05T03:58:17.580Z,0.8
2023-03-05T03:59:20.941Z,0.7
2023-03-05T04:00:24.163Z,0.7
2023-03-05T04:01:27.457Z,0.7
2023-03-05T04:02:30.212Z,0.8
2023-03-05T04:03:33.492Z,0.8
2023-03-05T04:04:36.755Z,0.8
2023-03-05T04:05:40.073Z,0.8
2023-03-05T04:06:43.362Z,0.7
2023-03-05T04:07:46.660Z,0.7
2023-03-05T04:08:49.941Z,0.8
2023-03-05T04:09:52.240Z,0.6
2023-03-05T04:10:54.553Z,0.7
2023-03-05T04:11:57.990Z,0.8
2023-03-05T04:13:00.293Z,0.8
2023-03-05T04:14:03.611Z,0.9
2023-03-05T04:15:06.929Z,0.6
2023-03-05T04:16:10.162Z,0.7
2023-03-05T04:17:13.828Z,0.7
2023-03-05T04:18:16.817Z,0.6
2023-03-05T04:19:20.056Z,0.6
2023-03-05T04:20:23.347Z,0.6
2023-03-05T04:21:27.174Z,0.9
2023-03-05T04:22:30.455Z,0.5
2023-03-05T04:23:33.739Z,0.8
2023-03-05T04:24:37.145Z,0.7
2023-03-05T04:25:40.373Z,0.6
2023-03-05T04:26:42.622Z,0.7
2023-03-05T04:27:45.954Z,0.7
2023-03-05T04:28:49.210Z,0.7
2023-03-05T04:29:52.494Z,0.6
2023-03-05T04:30:55.795Z,0.8
2023-03-05T04:31:59.156Z,0.6
2023-03-05T04:33:02.388Z,0.6
2023-03-05T04:34:04.689Z,0.8
2023-03-05T04:35:06.996Z,0.6
2023-03-05T04:36:09.387Z,0.7
2023-03-05T04:37:11.710Z,0.8
2023-03-05T04:38:14.993Z,0.8
2023-03-05T04:39:18.227Z,0.7
2023-03-05T04:40:21.489Z,0.7
2023-03-05T04:41:24.795Z,0.9
2023-03-05T04:42:28.077Z,0.6
2023-03-05T04:43:31.354Z,0.7
2023-03-05T04:44:34.657Z,0.9
2023-03-05T04:45:37.981Z,0.8
2023-03-05T04:46:41.330Z,0.6
2023-03-05T04:47:44.546Z,0.8
2023-03-05T04:48:47.834Z,0.8
2023-03-05T04:49:51.191Z,0.8
2023-03-05T04:50:53.519Z,0.7
2023-03-05T04:51:55.786Z,0.6
2023-03-05T04:52:59.039Z,0.7
2023-03-05T04:54:02.329Z,0.7
2023-03-05T04:55:05.632Z,0.7
2023-03-05T04:56:08.901Z,0.7
2023-03-05T04:57:12.302Z,0.7
2023-03-05T04:58:14.552Z,0.8
2023-03-05T04:59:16.877Z,0.9
2023-03-05T05:00:19.152Z,0.8
2023-03-05T05:01:21.533Z,0.7
2023-03-05T05:02:24.855Z,0.8
2023-03-05T05:03:28.011Z,0.9
2023-03-05T05:04:31.320Z,0.7
2023-03-05T05:05:34.608Z,0.7
2023-03-05T05:06:38.019Z,0.7
2023-03-05T05:07:41.184Z,0.6
2023-03-05T05:08:44.532Z,0.7
2023-03-05T05:09:47.782Z,0.6
2023-03-05T05:10:51.062Z,0.6
2023-03-05T05:11:54.351Z,0.6
2023-03-05T05:12:57.654Z,0.6
2023-03-05T05:14:00.983Z,0.7
2023-03-05T05:15:03.331Z,0.5
2023-03-05T05:16:06.545Z,0.8
2023-03-05T05:17:09.837Z,0.7
2023-03-05T05:18:13.117Z,0.6
2023-03-05T05:19:16.428Z,0.7
2023-03-05T05:20:19.709Z,0.9
2023-03-05T05:21:23.057Z,0.6
2023-03-05T05:22:25.340Z,0.6
2023-03-05T05:23:27.656Z,0.7
2023-03-05T05:24:31.024Z,0.8
2023-03-05T05:25:33.232Z,0.6
2023-03-05T05:26:35.563Z,0.8
2023-03-05T05:27:38.825Z,0.6
2023-03-05T05:28:42.107Z,0.7
2023-03-05T05:29:45.404Z,0.7
2023-03-05T05:30:48.731Z,0.6
2023-03-05T05:31:51.989Z,0.6
2023-03-05T05:32:55.274Z,0.6
2023-03-05T05:33:58.587Z,0.6
2023-03-05T05:35:01.861Z,0.7
2023-03-05T05:36:05.159Z,0.6
2023-03-05T05:37:08.456Z,0.7
2023-03-05T05:38:11.766Z,0.6
2023-03-05T05:39:15.106Z,0.7
2023-03-05T05:40:17.336Z,0.7
2023-03-05T05:41:20.667Z,0.6
2023-03-05T05:42:23.956Z,0.6
2023-03-05T05:43:27.678Z,0.7
2023-03-05T05:44:30.957Z,0.6
2023-03-05T05:45:34.272Z,0.5
2023-03-05T05:46:37.544Z,0.6
2023-03-05T05:47:39.848Z,0.5
2023-03-05T05:48:42.167Z,0.5
2023-03-05T05:49:44.478Z,0.6
2023-03-05T05:50:46.785Z,0.7
2023-03-05T05:51:50.105Z,0.6
2023-03-05T05:52:53.379Z,0.6
2023-03-05T05:53:56.671Z,0.6
2023-03-05T05:55:00.002Z,0.6
2023-03-05T05:56:03.320Z,0.5
2023-03-05T05:57:06.529Z,0.5
2023-03-05T05:58:09.833Z,0.6
2023-03-05T06:00:16.451Z,0.6
2023-03-05T06:01:19.708Z,0.6
2023-03-05T06:02:23.013Z,0.6
2023-03-05T06:03:26.290Z,0.6
2023-03-05T06:04:28.603Z,0.6
2023-03-05T06:05:31.919Z,0.5
2023-03-05T06:06:35.190Z,0.5
2023-03-05T06:07:38.463Z,0.7
2023-03-05T06:08:41.758Z,0.5
2023-03-05T06:09:45.053Z,0.6
2023-03-05T06:10:48.396Z,0.6
2023-03-05T06:11:51.649Z,0.6
2023-03-05T06:12:53.966Z,0.7
2023-03-05T06:13:56.261Z,0.6
2023-03-05T06:14:58.574Z,0.5
2023-03-05T06:16:00.982Z,0.6
2023-03-05T06:17:04.189Z,0.5
2023-03-05T06:18:07.465Z,0.6
2023-03-05T06:19:10.799Z,0.7
2023-03-05T06:20:14.054Z,0.5
2023-03-05T06:21:17.339Z,0.6
2023-03-05T06:22:20.642Z,0.8
2023-03-05T06:23:23.927Z,0.6
2023-03-05T06:24:27.954Z,0.7
2023-03-05T06:25:31.261Z,0.5
2023-03-05T06:26:34.502Z,0.6
2023-03-05T06:27:37.825Z,0.7
2023-03-05T06:28:41.098Z,0.7
2023-03-05T06:29:43.396Z,0.6
2023-03-05T06:30:46.689Z,0.5
2023-03-05T06:31:49.986Z,0.6
2023-03-05T06:32:53.285Z,0.5
2023-03-05T06:33:56.600Z,0.5
2023-03-05T06:34:59.900Z,0.6
2023-03-05T06:36:03.152Z,0.4
2023-03-05T06:37:05.547Z,0.5
2023-03-05T06:38:07.896Z,0.6
2023-03-05T06:39:10.253Z,0.5
2023-03-05T06:40:12.419Z,0.6
2023-03-05T06:41:15.730Z,0.6
2023-03-05T06:42:18.978Z,0.5
2023-03-05T06:43:22.297Z,0.6
2023-03-05T06:44:25.599Z,0.6
2023-03-05T06:45:28.875Z,0.7
2023-03-05T06:46:32.228Z,0.6
2023-03-05T06:47:35.429Z,0.5
2023-03-05T06:48:38.783Z,0.6
2023-03-05T06:49:42.070Z,0.5
2023-03-05T06:50:45.292Z,0.6
2023-03-05T06:51:48.633Z,0.5
2023-03-05T06:52:51.907Z,0.6
2023-03-05T06:53:54.215Z,0.7
2023-03-05T06:54:57.486Z,0.6
2023-03-05T06:56:00.844Z,0.5
2023-03-05T06:57:04.191Z,0.5
2023-03-05T06:58:07.364Z,0.5
2023-03-05T06:59:10.726Z,0.5
2023-03-05T07:00:14.114Z,0.5
2023-03-05T07:01:16.384Z,0.6
2023-03-05T07:02:18.590Z,0.5
2023-03-05T07:03:22.041Z,0.6
2023-03-05T07:04:24.318Z,0.5
2023-03-05T07:05:28.188Z,0.6
2023-03-05T07:06:31.509Z,0.5
2023-03-05T07:07:34.763Z,0.5
2023-03-05T07:08:38.130Z,0.5
2023-03-05T07:09:41.515Z,0.6
2023-03-05T07:10:44.645Z,0.5
2023-03-05T07:11:47.921Z,0.4
2023-03-05T07:12:51.354Z,0.4
2023-03-05T07:13:54.561Z,0.4
2023-03-05T07:14:57.816Z,0.6
2023-03-05T07:16:01.088Z,0.4
2023-03-05T07:17:04.405Z,0.6
2023-03-05T07:18:06.692Z,0.6
2023-03-05T07:19:10.040Z,0.6
2023-03-05T07:20:13.318Z,0.5
2023-03-05T07:21:16.589Z,0.4
2023-03-05T07:22:19.884Z,0.4
2023-03-05T07:23:23.208Z,0.6
2023-03-05T07:24:26.449Z,0.7
2023-03-05T07:25:28.768Z,0.5
2023-03-05T07:26:31.331Z,0.5
2023-03-05T07:27:34.591Z,0.5
2023-03-05T07:28:37.917Z,0.5
2023-03-05T07:29:41.234Z,0.5
2023-03-05T07:30:44.479Z,0.6
2023-03-05T07:31:47.922Z,0.6
2023-03-05T07:32:51.064Z,0.6
2023-03-05T07:33:54.394Z,0.5
2023-03-05T07:34:57.640Z,0.7
2023-03-05T07:36:00.921Z,0.5
2023-03-05T07:37:04.358Z,0.6
2023-03-05T07:38:07.525Z,0.5
2023-03-05T07:39:10.990Z,0.5
2023-03-05T07:40:13.133Z,0.4
2023-03-05T07:41:16.431Z,0.6
2023-03-05T07:42:19.803Z,0.5
2023-03-05T07:43:22.991Z,0.4
2023-03-05T07:44:26.331Z,0.4
2023-03-05T07:45:29.695Z,0.4
2023-03-05T07:46:32.895Z,0.4
2023-03-05T07:47:35.165Z,0.5
2023-03-05T07:48:37.498Z,0.4
2023-03-05T07:49:39.803Z,0.4
2023-03-05T07:50:42.105Z,0.5
2023-03-05T07:51:45.442Z,0.6
2023-03-05T07:52:48.676Z,0.6
2023-03-05T07:53:52.070Z,0.6
2023-03-05T07:54:55.413Z,0.4
2023-03-05T07:55:58.562Z,0.5
2023-03-05T07:57:01.843Z,0.4
2023-03-05T07:58:05.141Z,0.5
2023-03-05T07:59:08.444Z,0.8
2023-03-05T08:00:11.818Z,0.5
2023-03-05T08:01:15.064Z,0.5
2023-03-05T08:02:18.300Z,0.5
2023-03-05T08:03:21.742Z,0.4
2023-03-05T08:04:24.068Z,0.5
2023-03-05T08:05:27.363Z,0.5
2023-03-05T08:06:30.679Z,0.4
2023-03-05T08:07:33.869Z,0.5
2023-03-05T08:08:37.223Z,0.4
2023-03-05T08:09:40.458Z,0.5
2023-03-05T08:10:43.660Z,0.4
2023-03-05T08:11:46.031Z,0.4
2023-03-05T08:12:48.280Z,0.5
2023-03-05T08:13:50.700Z,0.6
2023-03-05T08:14:54.177Z,0.4
2023-03-05T08:15:56.328Z,0.7
2023-03-05T08:16:58.627Z,0.5
2023-03-05T08:18:01.954Z,0.5
2023-03-05T08:19:05.222Z,0.4
2023-03-05T08:20:08.511Z,0.5
2023-03-05T08:21:11.853Z,0.5
2023-03-05T08:22:15.093Z,0.4
2023-03-05T08:23:17.406Z,0.6
2023-03-05T08:24:20.697Z,0.4
2023-03-05T08:25:23.986Z,0.4
2023-03-05T08:26:27.366Z,0.4
2023-03-05T08:27:30.607Z,0.5
2023-03-05T08:28:33.863Z,0.4
2023-03-05T08:29:37.150Z,0.4
2023-03-05T08:30:40.455Z,0.4
2023-03-05T08:31:43.779Z,0.3
2023-03-05T08:32:47.040Z,0.4
2023-03-05T08:33:50.346Z,0.4
2023-03-05T08:34:53.606Z,0.4
2023-03-05T08:35:56.925Z,0.5
2023-03-05T08:36:59.340Z,0.4
2023-03-05T08:38:01.559Z,0.4
2023-03-05T08:39:03.852Z,0.5
2023-03-05T08:40:06.173Z,0.3
2023-03-05T08:41:08.461Z,0.4
2023-03-05T08:42:11.751Z,0.4
2023-03-05T08:43:15.029Z,0.4
2023-03-05T08:44:18.324Z,0.6
2023-03-05T08:45:21.698Z,0.7
2023-03-05T08:46:24.953Z,0.6
2023-03-05T08:47:28.846Z,0.5
2023-03-05T08:48:32.112Z,0.7
2023-03-05T08:49:35.423Z,0.5
2023-03-05T08:50:38.708Z,0.5
2023-03-05T08:51:42.096Z,0.5
2023-03-05T08:52:45.268Z,0.5
2023-03-05T08:53:48.585Z,0.5
2023-03-05T08:54:50.875Z,0.4
2023-03-05T08:55:54.189Z,0.4
2023-03-05T08:56:57.566Z,0.5
2023-03-05T08:58:00.771Z,0.4
2023-03-05T08:59:04.070Z,0.5
2023-03-05T09:00:07.589Z,0.5
2023-03-05T09:01:10.703Z,0.5
2023-03-05T09:02:12.967Z,0.5
2023-03-05T09:03:15.262Z,0.5
2023-03-05T09:04:18.532Z,0.5
2023-03-05T09:05:21.837Z,0.3
2023-03-05T09:06:24.165Z,0.4
2023-03-05T09:07:26.464Z,0.5
2023-03-05T09:08:29.777Z,0.3
2023-03-05T09:09:33.050Z,0.5
2023-03-05T09:10:36.341Z,0.4
2023-03-05T09:11:39.628Z,0.4
2023-03-05T09:12:42.920Z,0.4
2023-03-05T09:13:46.263Z,0.4
2023-03-05T09:14:49.534Z,0.5
2023-03-05T09:15:52.921Z,0.3
2023-03-05T09:16:56.113Z,0.5
2023-03-05T09:17:59.376Z,0.6
2023-03-05T09:19:02.677Z,0.4
2023-03-05T09:20:05.971Z,0.6
2023-03-05T09:21:08.285Z,0.4
2023-03-05T09:22:11.565Z,0.5
2023-03-05T09:23:14.861Z,0.5
2023-03-05T09:24:18.135Z,0.5
2023-03-05T09:25:21.438Z,0.4
2023-03-05T09:26:24.755Z,0.4
2023-03-05T09:27:28.013Z,0.5
2023-03-05T09:28:30.361Z,0.3
2023-03-05T09:29:32.666Z,0.4
2023-03-05T09:30:34.952Z,0.5
2023-03-05T09:31:37.274Z,0.5
2023-03-05T09:32:40.581Z,0.5
2023-03-05T09:33:43.901Z,0.5
2023-03-05T09:34:47.143Z,0.5
2023-03-05T09:35:50.490Z,0.5
2023-03-05T09:36:53.703Z,0.4
2023-03-05T09:37:57.027Z,0.5
2023-03-05T09:39:00.298Z,0.4
2023-03-05T09:40:03.592Z,0.4
2023-03-05T09:41:06.912Z,0.6
2023-03-05T09:42:10.193Z,0.4
2023-03-05T09:43:13.497Z,0.4
2023-03-05T09:44:16.819Z,0.5
2023-03-05T09:45:19.080Z,0.5
2023-03-05T09:46:22.357Z,0.4
2023-03-05T09:47:25.683Z,0.9
2023-03-05T09:48:29.270Z,0.8
2023-03-05T09:49:32.500Z,0.9
2023-03-05T09:50:35.867Z,0.5
2023-03-05T09:51:39.075Z,0.7
2023-03-05T09:52:41.407Z,0.8
2023-03-05T09:53:43.731Z,0.7
2023-03-05T09:54:46.992Z,0.7
2023-03-05T09:55:50.307Z,0.7
2023-03-05T09:56:53.574Z,0.8
2023-03-05T09:57:56.907Z,0.6
2023-03-05T09:59:00.159Z,0.5
2023-03-05T10:00:03.452Z,0.7
2023-03-05T10:01:06.738Z,0.6
2023-03-05T10:02:10.032Z,0.9
2023-03-05T10:03:13.329Z,0.9
2023-03-05T10:04:16.630Z,0.9
2023-03-05T10:05:19.917Z,0.9
2023-03-05T10:06:23.203Z,0.8
2023-03-05T10:07:25.511Z,0.7
2023-03-05T10:08:29.326Z,0.9
2023-03-05T10:09:32.609Z,0.7
2023-03-05T10:10:35.904Z,0.9
2023-03-05T10:11:39.202Z,0.8
2023-03-05T10:12:42.562Z,0.7
2023-03-05T10:13:45.786Z,0.7
2023-03-05T10:14:48.101Z,0.7
2023-03-05T10:15:50.406Z,0.7
2023-03-05T10:16:52.744Z,0.7
2023-03-05T10:17:55.070Z,0.6
2023-03-05T10:18:57.344Z,0.8
2023-03-05T10:19:59.679Z,0.7
2023-03-05T10:21:02.929Z,0.7
2023-03-05T10:22:06.221Z,0.5
2023-03-05T10:23:09.580Z,0.5
2023-03-05T10:24:12.890Z,0.7
2023-03-05T10:25:16.125Z,0.5
2023-03-05T10:26:19.395Z,0.7
2023-03-05T10:27:22.704Z,0.6
2023-03-05T10:28:25.996Z,0.6
2023-03-05T10:29:29.482Z,0.5
2023-03-05T10:30:32.756Z,1
2023-03-05T10:31:36.043Z,0.6
2023-03-05T10:32:39.333Z,0.6
2023-03-05T10:33:41.648Z,0.6
2023-03-05T10:34:44.939Z,0.7
2023-03-05T10:35:48.231Z,0.8
2023-03-05T10:36:51.540Z,0.7
2023-03-05T10:37:54.854Z,0.8
2023-03-05T10:38:58.115Z,0.8
2023-03-05T10:40:01.409Z,0.7
2023-03-05T10:41:03.706Z,1.1
2023-03-05T10:42:06.008Z,0.8
2023-03-05T10:43:08.328Z,0.9
2023-03-05T10:44:10.629Z,1
2023-03-05T10:45:13.925Z,0.7
2023-03-05T10:46:17.217Z,0.7
2023-03-05T10:47:20.504Z,0.7
2023-03-05T10:48:23.799Z,0.8
2023-03-05T10:49:27.111Z,0.8
2023-03-05T10:50:30.391Z,0.7
2023-03-05T10:51:33.681Z,0.8
2023-03-05T10:52:36.952Z,0.8
2023-03-05T10:53:40.257Z,0.7
2023-03-05T10:54:43.561Z,0.7
2023-03-05T10:55:46.932Z,0.7
2023-03-05T10:56:50.161Z,0.8
2023-03-05T10:57:52.446Z,0.9
2023-03-05T10:58:55.754Z,1
2023-03-05T10:59:59.047Z,0.7
2023-03-05T11:01:02.332Z,0.8
2023-03-05T11:02:05.608Z,0.7
2023-03-05T11:03:08.918Z,0.6
2023-03-05T11:04:12.198Z,0.7
2023-03-05T11:05:14.504Z,0.7
2023-03-05T11:06:16.808Z,0.8
2023-03-05T11:07:20.184Z,0.8
2023-03-05T11:08:22.425Z,0.9
2023-03-05T11:09:24.728Z,0.9
2023-03-05T11:10:28.021Z,1.4
2023-03-05T11:11:31.304Z,1
2023-03-05T11:12:34.615Z,1.8
2023-03-05T11:13:37.892Z,1.2
2023-03-05T11:14:41.180Z,1
2023-03-05T11:15:44.496Z,1.1
2023-03-05T11:16:47.765Z,0.9
2023-03-05T11:17:51.054Z,0.7
2023-03-05T11:18:54.357Z,1
2023-03-05T11:19:57.636Z,0.9
2023-03-05T11:21:01.033Z,0.8
2023-03-05T11:22:04.232Z,0.8
2023-03-05T11:23:06.572Z,0.8
2023-03-05T11:24:09.827Z,1.1
2023-03-05T11:25:13.117Z,0.9
2023-03-05T11:26:16.404Z,0.9
2023-03-05T11:27:19.704Z,1
2023-03-05T11:28:22.992Z,0.9
2023-03-05T11:29:26.355Z,1
2023-03-05T11:30:28.673Z,1
2023-03-05T11:31:30.937Z,0.9
2023-03-05T11:32:33.243Z,0.9
2023-03-05T11:33:35.550Z,0.8
2023-03-05T11:34:38.826Z,0.9
2023-03-05T11:35:42.187Z,0.9
2023-03-05T11:36:45.405Z,0.8
2023-03-05T11:37:48.680Z,0.7
2023-03-05T11:38:51.984Z,0.9
2023-03-05T11:39:55.336Z,0.8
2023-03-05T11:40:58.722Z,0.8
2023-03-05T11:42:01.873Z,0.9
2023-03-05T11:43:05.178Z,0.8
2023-03-05T11:44:08.502Z,0.8
2023-03-05T11:45:11.733Z,0.7
2023-03-05T11:46:15.037Z,0.8
2023-03-05T11:47:17.341Z,0.8
2023-03-05T11:48:20.620Z,0.6
2023-03-05T11:49:23.923Z,0.7
2023-03-05T11:50:27.286Z,0.7
2023-03-05T11:51:30.520Z,0.7
2023-03-05T11:52:33.802Z,0.7
2023-03-05T11:53:37.101Z,0.7
2023-03-05T11:54:39.419Z,0.6
2023-03-05T11:55:41.778Z,0.7
2023-03-05T11:56:44.058Z,0.7
2023-03-05T11:57:46.399Z,0.7
2023-03-05T11:58:49.628Z,0.6
2023-03-05T11:59:52.935Z,0.5
2023-03-05T12:00:56.225Z,0.8
2023-03-05T12:01:59.543Z,0.7
2023-03-05T12:03:02.825Z,0.7
2023-03-05T12:04:06.104Z,0.6
2023-03-05T12:05:09.394Z,0.7
2023-03-05T12:06:12.754Z,0.6
2023-03-05T12:07:15.971Z,0.8
2023-03-05T12:08:19.269Z,0.8
2023-03-05T12:09:22.556Z,0.7
2023-03-05T12:10:25.842Z,0.9
2023-03-05T12:11:28.181Z,1
2023-03-05T12:12:31.469Z,1
2023-03-05T12:13:34.749Z,0.8
2023-03-05T12:14:38.045Z,0.9
2023-03-05T12:15:41.550Z,0.7
2023-03-05T12:16:44.719Z,0.7
2023-03-05T12:17:47.916Z,0.7
2023-03-05T12:18:50.225Z,0.8
2023-03-05T12:19:52.546Z,0.8
2023-03-05T12:20:54.851Z,0.7
2023-03-05T12:21:57.219Z,0.8
2023-03-05T12:23:00.535Z,0.6
2023-03-05T12:24:03.738Z,0.7
2023-03-05T12:25:07.029Z,0.9
2023-03-05T12:26:10.353Z,0.8
2023-03-05T12:27:13.677Z,0.8
2023-03-05T12:28:16.913Z,0.7
2023-03-05T12:29:20.192Z,0.9
2023-03-05T12:30:23.491Z,0.7
2023-03-05T12:31:26.787Z,0.9
2023-03-05T12:32:30.372Z,0.8
2023-03-05T12:33:33.539Z,0.6
2023-03-05T12:34:36.817Z,0.7
2023-03-05T12:35:39.127Z,0.7
2023-03-05T12:36:42.410Z,0.7
2023-03-05T12:37:45.717Z,0.7
2023-03-05T12:38:49.030Z,0.6
2023-03-05T12:39:52.334Z,0.5
2023-03-05T12:40:55.600Z,0.8
2023-03-05T12:41:58.891Z,0.9
2023-03-05T12:43:01.210Z,0.6
2023-03-05T12:44:03.569Z,0.9
2023-03-05T12:45:05.805Z,0.9
2023-03-05T12:46:08.155Z,1
2023-03-05T12:47:11.433Z,0.9
2023-03-05T12:48:14.818Z,1.5
2023-03-05T12:49:18.102Z,1.5
2023-03-05T12:50:21.302Z,1.6
2023-03-05T12:51:24.574Z,1.3
2023-03-05T12:52:27.980Z,1.6
2023-03-05T12:53:31.292Z,1.7
2023-03-05T12:54:34.458Z,1.4
2023-03-05T12:55:37.745Z,1.6
2023-03-05T12:56:41.032Z,2.09
2023-03-05T12:57:44.391Z,1.4
2023-03-05T12:58:47.639Z,1.9
2023-03-05T12:59:50.017Z,1.7
2023-03-05T13:00:53.236Z,1.6
2023-03-05T13:01:56.605Z,1.9
2023-03-05T13:02:59.907Z,2.9
2023-03-05T13:04:03.222Z,2.7
2023-03-05T13:05:06.398Z,2.9
2023-03-05T13:06:09.828Z,2.3
2023-03-05T13:07:12.024Z,2.8
2023-03-05T13:08:14.293Z,2.4
2023-03-05T13:09:16.770Z,2.5
2023-03-05T13:10:18.915Z,2.6
2023-03-05T13:11:22.287Z,1.3
2023-03-05T13:12:25.512Z,3.4
2023-03-05T13:13:28.795Z,2.9
2023-03-05T13:14:32.134Z,3.7
2023-03-05T13:15:35.504Z,4.69
2023-03-05T13:16:38.773Z,5.6
2023-03-05T13:17:41.940Z,2.2
2023-03-05T13:18:45.348Z,3.4
2023-03-05T13:19:48.545Z,2.4
2023-03-05T13:20:51.883Z,3.5
2023-03-05T13:21:55.166Z,2.3
2023-03-05T13:22:58.437Z,2.8
2023-03-05T13:24:00.753Z,3.2
2023-03-05T13:25:04.027Z,2
2023-03-05T13:26:07.374Z,2.09
2023-03-05T13:27:10.695Z,2.6
2023-03-05T13:28:13.915Z,2.2
2023-03-05T13:29:17.308Z,2.4
2023-03-05T13:30:20.488Z,2.09
2023-03-05T13:31:22.864Z,2.09
2023-03-05T13:32:25.098Z,2
2023-03-05T13:33:28.538Z,1.7
2023-03-05T13:34:31.690Z,1.7
2023-03-05T13:35:35.017Z,1.9
2023-03-05T13:36:38.402Z,1.8
2023-03-05T13:37:41.713Z,1.5
2023-03-05T13:38:44.928Z,1.5
2023-03-05T13:39:48.158Z,1.8
2023-03-05T13:40:51.631Z,1.6
2023-03-05T13:41:54.894Z,2.09
2023-03-05T13:42:58.019Z,2.09
2023-03-05T13:44:01.374Z,1.9
2023-03-05T13:45:04.601Z,1.8
2023-03-05T13:46:06.943Z,1.6
2023-03-05T13:47:10.196Z,1.5
2023-03-05T13:48:13.558Z,1.4
2023-03-05T13:49:16.790Z,1.6
2023-03-05T13:50:20.095Z,1.4
2023-03-05T13:51:23.373Z,1.4
2023-03-05T13:52:26.673Z,1.3
2023-03-05T13:53:28.985Z,1.6
2023-03-05T13:54:31.278Z,1.7
2023-03-05T13:55:33.788Z,1.7
2023-03-05T13:56:36.079Z,1.7
2023-03-05T13:57:39.381Z,1.5
2023-03-05T13:58:41.688Z,1.8
2023-03-05T13:59:44.085Z,1.7
2023-03-05T14:00:47.278Z,1.8
2023-03-05T14:01:50.597Z,2.2
2023-03-05T14:02:53.894Z,2.5
2023-03-05T14:03:57.179Z,2.4
2023-03-05T14:05:00.456Z,2.3
2023-03-05T14:06:03.748Z,2.3
2023-03-05T14:07:07.082Z,1.5
2023-03-05T14:08:10.318Z,1.8
2023-03-05T14:09:13.685Z,2.9
2023-03-05T14:10:16.937Z,1.3
2023-03-05T14:11:20.360Z,1.9
2023-03-05T14:12:23.638Z,2.2
2023-03-05T14:13:25.937Z,2.4
2023-03-05T14:14:29.086Z,1.8
2023-03-05T14:15:32.483Z,2.09
2023-03-05T14:16:35.813Z,2.3
2023-03-05T14:17:39.003Z,1.6
2023-03-05T14:18:42.319Z,1.8
2023-03-05T14:19:45.628Z,1.9
2023-03-05T14:20:47.931Z,2.09
2023-03-05T14:21:50.231Z,1.8
2023-03-05T14:22:52.542Z,2
2023-03-05T14:23:54.872Z,1.9
2023-03-05T14:24:58.114Z,1.7
2023-03-05T14:26:01.376Z,1.5
2023-03-05T14:27:04.704Z,1.6
2023-03-05T14:28:07.984Z,1.5
2023-03-05T14:29:11.284Z,1.4
2023-03-05T14:30:14.603Z,1.2
2023-03-05T14:31:17.836Z,1.5
2023-03-05T14:32:21.237Z,1.8